sensor_id;sensor_type;location;lat;lon;timestamp;pressure;altitude;pressure_sealevel;temperature;humidity
20027;BME280;10174;42.688;23.344;2023-04-03T00:01:05;94700.09;;;6.77;72.11
20027;BME280;10174;42.688;23.344;2023-04-03T00:03:31;94711.28;;;6.74;72.78
20027;BME280;10174;42.688;23.344;2023-04-03T00:05:57;94715.50;;;6.70;73.86
20027;BME280;10174;42.688;23.344;2023-04-03T00:08:23;94682.59;;;6.59;73.72
20027;BME280;10174;42.688;23.344;2023-04-03T00:10:48;94653.06;;;6.39;73.77
20027;BME280;10174;42.688;23.344;2023-04-03T00:13:14;94700.91;;;6.78;73.24
20027;BME280;10174;42.688;23.344;2023-04-03T00:15:40;94689.72;;;6.81;72.49
20027;BME280;10174;42.688;23.344;2023-04-03T00:18:06;94691.75;;;6.69;73.38
20027;BME280;10174;42.688;23.344;2023-04-03T00:20:32;94684.59;;;6.47;73.60
20027;BME280;10174;42.688;23.344;2023-04-03T00:22:58;94548.44;;;5.55;74.02
20027;BME280;10174;42.688;23.344;2023-04-03T00:25:24;94666.28;;;6.29;73.58
20027;BME280;10174;42.688;23.344;2023-04-03T00:27:50;94681.00;;;6.31;74.08
20027;BME280;10174;42.688;23.344;2023-04-03T00:30:18;94686.81;;;6.28;75.20
20027;BME280;10174;42.688;23.344;2023-04-03T00:32:44;94620.81;;;5.69;75.70
20027;BME280;10174;42.688;23.344;2023-04-03T00:35:09;94550.56;;;5.31;75.20
20027;BME280;10174;42.688;23.344;2023-04-03T00:37:35;94697.69;;;6.21;75.46
20027;BME280;10174;42.688;23.344;2023-04-03T00:40:01;94686.41;;;6.14;74.66
20027;BME280;10174;42.688;23.344;2023-04-03T00:42:26;94685.78;;;6.07;75.49
20027;BME280;10174;42.688;23.344;2023-04-03T00:47:21;94694.03;;;6.05;74.75
20027;BME280;10174;42.688;23.344;2023-04-03T00:49:46;94694.53;;;6.02;75.39
20027;BME280;10174;42.688;23.344;2023-04-03T00:52:15;94701.25;;;6.05;75.96
20027;BME280;10174;42.688;23.344;2023-04-03T00:54:42;94695.91;;;6.05;76.10
20027;BME280;10174;42.688;23.344;2023-04-03T00:57:09;94674.00;;;6.03;75.24
20027;BME280;10174;42.688;23.344;2023-04-03T00:59:40;94697.72;;;5.99;75.20
20027;BME280;10174;42.688;23.344;2023-04-03T01:02:09;94698.44;;;5.95;75.38
20027;BME280;10174;42.688;23.344;2023-04-03T01:04:36;94703.75;;;5.95;75.47
20027;BME280;10174;42.688;23.344;2023-04-03T01:07:10;94702.34;;;5.87;75.24
20027;BME280;10174;42.688;23.344;2023-04-03T01:09:37;94703.03;;;5.77;76.16
20027;BME280;10174;42.688;23.344;2023-04-03T01:12:17;94700.28;;;5.72;76.19
20027;BME280;10174;42.688;23.344;2023-04-03T01:14:47;94693.75;;;5.63;76.42
20027;BME280;10174;42.688;23.344;2023-04-03T01:17:39;94708.72;;;5.64;76.89
20027;BME280;10174;42.688;23.344;2023-04-03T01:28:13;94689.75;;;5.43;77.95
20027;BME280;10174;42.688;23.344;2023-04-03T01:33:20;94704.84;;;5.55;78.21
20027;BME280;10174;42.688;23.344;2023-04-03T01:35:46;94701.63;;;5.52;77.88
20027;BME280;10174;42.688;23.344;2023-04-03T01:38:11;94584.44;;;4.74;77.56
20027;BME280;10174;42.688;23.344;2023-04-03T01:40:36;94681.16;;;5.36;77.40
20027;BME280;10174;42.688;23.344;2023-04-03T01:43:02;94573.28;;;4.77;77.78
20027;BME280;10174;42.688;23.344;2023-04-03T01:45:27;94677.44;;;5.37;77.35
20027;BME280;10174;42.688;23.344;2023-04-03T01:47:53;94617.78;;;4.99;77.76
20027;BME280;10174;42.688;23.344;2023-04-03T01:50:18;94680.97;;;5.43;77.72
20027;BME280;10174;42.688;23.344;2023-04-03T01:52:43;94706.34;;;5.45;78.28
20027;BME280;10174;42.688;23.344;2023-04-03T01:55:09;94707.31;;;5.39;78.38
20027;BME280;10174;42.688;23.344;2023-04-03T01:57:34;94699.31;;;5.39;78.44
20027;BME280;10174;42.688;23.344;2023-04-03T01:59:59;94704.06;;;5.37;78.61
20027;BME280;10174;42.688;23.344;2023-04-03T02:02:25;94595.50;;;4.66;79.03
20027;BME280;10174;42.688;23.344;2023-04-03T02:04:50;94708.91;;;5.40;79.84
20027;BME280;10174;42.688;23.344;2023-04-03T02:07:16;94675.53;;;5.15;79.47
20027;BME280;10174;42.688;23.344;2023-04-03T02:09:41;94685.22;;;5.22;80.02
20027;BME280;10174;42.688;23.344;2023-04-03T02:12:06;94719.16;;;5.48;79.88
20027;BME280;10174;42.688;23.344;2023-04-03T02:14:32;94706.81;;;5.42;79.40
20027;BME280;10174;42.688;23.344;2023-04-03T02:16:57;94700.66;;;5.42;79.64
20027;BME280;10174;42.688;23.344;2023-04-03T02:19:23;94693.59;;;5.30;79.13
20027;BME280;10174;42.688;23.344;2023-04-03T02:21:48;94706.00;;;5.42;79.20
20027;BME280;10174;42.688;23.344;2023-04-03T02:24:14;94680.53;;;5.29;79.00
20027;BME280;10174;42.688;23.344;2023-04-03T02:26:39;94684.31;;;5.33;78.97
20027;BME280;10174;42.688;23.344;2023-04-03T02:29:05;94701.16;;;5.39;79.31
20027;BME280;10174;42.688;23.344;2023-04-03T02:31:31;94696.31;;;5.35;79.28
20027;BME280;10174;42.688;23.344;2023-04-03T02:33:56;94675.53;;;5.15;79.80
20027;BME280;10174;42.688;23.344;2023-04-03T02:36:21;94683.81;;;5.36;80.06
20027;BME280;10174;42.688;23.344;2023-04-03T02:38:47;94680.53;;;5.29;79.83
20027;BME280;10174;42.688;23.344;2023-04-03T02:41:13;94674.16;;;5.13;79.16
20027;BME280;10174;42.688;23.344;2023-04-03T02:43:39;94697.81;;;5.09;79.92
20027;BME280;10174;42.688;23.344;2023-04-03T02:46:05;94579.13;;;4.40;80.11
20027;BME280;10174;42.688;23.344;2023-04-03T02:48:31;94568.97;;;4.37;79.98
20027;BME280;10174;42.688;23.344;2023-04-03T02:50:57;94561.88;;;4.26;80.05
20027;BME280;10174;42.688;23.344;2023-04-03T02:53:22;94685.06;;;4.94;81.48
20027;BME280;10174;42.688;23.344;2023-04-03T02:55:48;94658.16;;;4.74;81.42
20027;BME280;10174;42.688;23.344;2023-04-03T02:58:13;94653.53;;;4.69;81.98
20027;BME280;10174;42.688;23.344;2023-04-03T03:00:39;94681.03;;;4.75;82.18
20027;BME280;10174;42.688;23.344;2023-04-03T03:03:05;94659.72;;;4.58;82.15
20027;BME280;10174;42.688;23.344;2023-04-03T03:05:31;94683.94;;;4.73;81.94
20027;BME280;10174;42.688;23.344;2023-04-03T03:07:57;94549.13;;;3.94;81.99
20027;BME280;10174;42.688;23.344;2023-04-03T03:10:22;94637.97;;;4.44;81.96
20027;BME280;10174;42.688;23.344;2023-04-03T03:12:48;94655.06;;;4.48;82.90
20027;BME280;10174;42.688;23.344;2023-04-03T03:15:14;94656.53;;;4.56;82.89
20027;BME280;10174;42.688;23.344;2023-04-03T03:17:41;94654.41;;;4.58;82.78
20027;BME280;10174;42.688;23.344;2023-04-03T03:20:07;94590.00;;;4.22;82.89
20027;BME280;10174;42.688;23.344;2023-04-03T03:22:33;94632.50;;;4.51;82.54
20027;BME280;10174;42.688;23.344;2023-04-03T03:24:59;94549.22;;;3.99;81.74
20027;BME280;10174;42.688;23.344;2023-04-03T03:27:25;94552.34;;;3.96;81.22
20027;BME280;10174;42.688;23.344;2023-04-03T03:29:51;94528.31;;;3.74;81.81
20027;BME280;10174;42.688;23.344;2023-04-03T03:32:16;94671.91;;;4.54;82.61
20027;BME280;10174;42.688;23.344;2023-04-03T03:34:42;94637.94;;;4.27;83.12
20027;BME280;10174;42.688;23.344;2023-04-03T03:37:07;94681.34;;;4.44;83.49
20027;BME280;10174;42.688;23.344;2023-04-03T03:39:32;94530.38;;;3.55;83.28
20027;BME280;10174;42.688;23.344;2023-04-03T03:41:58;94679.06;;;4.53;83.53
20027;BME280;10174;42.688;23.344;2023-04-03T03:44:23;94618.91;;;4.18;83.24
20027;BME280;10174;42.688;23.344;2023-04-03T03:46:48;94620.53;;;4.19;82.98
20027;BME280;10174;42.688;23.344;2023-04-03T03:49:14;94667.97;;;4.56;83.24
20027;BME280;10174;42.688;23.344;2023-04-03T03:51:39;94633.78;;;4.31;83.05
20027;BME280;10174;42.688;23.344;2023-04-03T03:54:05;94674.19;;;4.62;83.16
20027;BME280;10174;42.688;23.344;2023-04-03T03:56:31;94686.19;;;4.64;83.76
20027;BME280;10174;42.688;23.344;2023-04-03T03:58:56;94690.69;;;4.64;82.90
20027;BME280;10174;42.688;23.344;2023-04-03T04:01:23;94673.03;;;4.58;83.09
20027;BME280;10174;42.688;23.344;2023-04-03T04:03:49;94622.47;;;4.41;82.62
20027;BME280;10174;42.688;23.344;2023-04-03T04:06:15;94652.16;;;4.50;82.38
20027;BME280;10174;42.688;23.344;2023-04-03T04:08:40;94653.44;;;4.64;82.32
20027;BME280;10174;42.688;23.344;2023-04-03T04:11:06;94665.22;;;4.68;82.36
20027;BME280;10174;42.688;23.344;2023-04-03T04:13:32;94640.38;;;4.45;82.98
20027;BME280;10174;42.688;23.344;2023-04-03T04:15:57;94535.66;;;3.84;82.85
20027;BME280;10174;42.688;23.344;2023-04-03T04:18:23;94672.78;;;4.76;82.89
20027;BME280;10174;42.688;23.344;2023-04-03T04:20:49;94668.06;;;4.61;83.13
20027;BME280;10174;42.688;23.344;2023-04-03T04:23:15;94692.38;;;4.70;83.33
20027;BME280;10174;42.688;23.344;2023-04-03T04:25:40;94687.47;;;4.62;83.44
20027;BME280;10174;42.688;23.344;2023-04-03T04:28:06;94657.69;;;4.31;83.97
20027;BME280;10174;42.688;23.344;2023-04-03T04:30:31;94679.25;;;4.46;84.18
20027;BME280;10174;42.688;23.344;2023-04-03T04:32:57;94694.50;;;4.68;84.07
20027;BME280;10174;42.688;23.344;2023-04-03T04:35:22;94631.19;;;4.36;83.57
20027;BME280;10174;42.688;23.344;2023-04-03T04:37:47;94648.59;;;4.61;83.44
20027;BME280;10174;42.688;23.344;2023-04-03T04:40:13;94616.38;;;4.40;82.96
20027;BME280;10174;42.688;23.344;2023-04-03T04:42:38;94613.47;;;4.42;82.82
20027;BME280;10174;42.688;23.344;2023-04-03T04:45:04;94674.41;;;4.94;81.90
20027;BME280;10174;42.688;23.344;2023-04-03T04:47:30;94661.50;;;5.03;80.75
20027;BME280;10174;42.688;23.344;2023-04-03T04:49:55;94705.38;;;5.34;80.58
20027;BME280;10174;42.688;23.344;2023-04-03T04:52:21;94706.66;;;5.32;80.62
20027;BME280;10174;42.688;23.344;2023-04-03T04:54:46;94656.44;;;5.02;80.72
20027;BME280;10174;42.688;23.344;2023-04-03T04:57:12;94668.59;;;5.14;81.39
20027;BME280;10174;42.688;23.344;2023-04-03T04:59:37;94713.25;;;5.46;81.54
20027;BME280;10174;42.688;23.344;2023-04-03T05:02:03;94674.72;;;5.32;80.64
20027;BME280;10174;42.688;23.344;2023-04-03T05:04:28;94726.53;;;5.80;79.66
20027;BME280;10174;42.688;23.344;2023-04-03T05:06:53;94731.34;;;5.83;80.18
20027;BME280;10174;42.688;23.344;2023-04-03T05:09:19;94732.53;;;5.93;79.16
20027;BME280;10174;42.688;23.344;2023-04-03T05:11:45;94736.41;;;6.02;78.64
20027;BME280;10174;42.688;23.344;2023-04-03T05:14:11;94731.47;;;5.94;78.94
20027;BME280;10174;42.688;23.344;2023-04-03T05:16:36;94753.00;;;6.09;78.54
20027;BME280;10174;42.688;23.344;2023-04-03T05:19:03;94684.22;;;5.67;77.73
20027;BME280;10174;42.688;23.344;2023-04-03T05:21:29;94744.09;;;6.20;77.66
20027;BME280;10174;42.688;23.344;2023-04-03T05:24:00;94756.56;;;6.37;76.78
20027;BME280;10174;42.688;23.344;2023-04-03T05:26:28;94702.22;;;6.21;75.83
20027;BME280;10174;42.688;23.344;2023-04-03T05:28:54;94700.34;;;6.21;76.64
20027;BME280;10174;42.688;23.344;2023-04-03T05:31:20;94696.75;;;6.33;76.23
20027;BME280;10174;42.688;23.344;2023-04-03T05:33:45;94615.66;;;5.84;75.54
20027;BME280;10174;42.688;23.344;2023-04-03T05:36:12;94722.28;;;6.51;75.32
20027;BME280;10174;42.688;23.344;2023-04-03T05:38:38;94741.31;;;6.59;75.37
20027;BME280;10174;42.688;23.344;2023-04-03T05:41:04;94727.41;;;6.57;75.23
20027;BME280;10174;42.688;23.344;2023-04-03T05:43:30;94732.97;;;6.78;74.47
20027;BME280;10174;42.688;23.344;2023-04-03T05:45:55;94747.34;;;6.77;73.65
20027;BME280;10174;42.688;23.344;2023-04-03T05:48:21;94734.25;;;6.75;73.35
20027;BME280;10174;42.688;23.344;2023-04-03T05:50:46;94597.56;;;5.86;73.92
20027;BME280;10174;42.688;23.344;2023-04-03T05:53:17;94651.50;;;6.16;74.35
20027;BME280;10174;42.688;23.344;2023-04-03T05:55:44;94669.06;;;6.39;74.34
20027;BME280;10174;42.688;23.344;2023-04-03T05:58:10;94697.50;;;6.55;74.49
20027;BME280;10174;42.688;23.344;2023-04-03T06:00:35;94713.09;;;6.69;74.48
20027;BME280;10174;42.688;23.344;2023-04-03T06:03:01;94679.47;;;6.68;73.64
20027;BME280;10174;42.688;23.344;2023-04-03T06:05:26;94689.91;;;6.69;72.82
20027;BME280;10174;42.688;23.344;2023-04-03T06:07:52;94683.94;;;6.62;72.60
20027;BME280;10174;42.688;23.344;2023-04-03T06:10:17;94672.00;;;6.70;72.54
20027;BME280;10174;42.688;23.344;2023-04-03T06:12:42;94700.09;;;7.10;72.77
20027;BME280;10174;42.688;23.344;2023-04-03T06:15:08;94622.56;;;6.62;71.60
20027;BME280;10174;42.688;23.344;2023-04-03T06:17:36;94670.28;;;6.86;71.76
20027;BME280;10174;42.688;23.344;2023-04-03T06:20:03;94661.00;;;6.93;71.75
20027;BME280;10174;42.688;23.344;2023-04-03T06:22:29;94674.09;;;6.95;72.28
20027;BME280;10174;42.688;23.344;2023-04-03T06:24:55;94583.72;;;6.44;72.55
20027;BME280;10174;42.688;23.344;2023-04-03T06:27:20;94721.03;;;7.23;72.81
20027;BME280;10174;42.688;23.344;2023-04-03T06:29:46;94713.69;;;7.08;72.33
20027;BME280;10174;42.688;23.344;2023-04-03T06:32:11;94718.06;;;7.20;72.30
20027;BME280;10174;42.688;23.344;2023-04-03T06:34:37;94722.66;;;7.24;72.25
20027;BME280;10174;42.688;23.344;2023-04-03T06:37:03;94722.84;;;7.50;71.84
20027;BME280;10174;42.688;23.344;2023-04-03T06:39:28;94695.16;;;7.29;71.41
20027;BME280;10174;42.688;23.344;2023-04-03T06:41:54;94714.25;;;7.48;71.10
20027;BME280;10174;42.688;23.344;2023-04-03T06:44:20;94608.16;;;7.01;70.65
20027;BME280;10174;42.688;23.344;2023-04-03T06:46:45;94614.81;;;7.41;69.15
20027;BME280;10174;42.688;23.344;2023-04-03T06:49:12;94720.50;;;8.17;69.82
20027;BME280;10174;42.688;23.344;2023-04-03T06:51:37;94708.75;;;8.23;68.85
20027;BME280;10174;42.688;23.344;2023-04-03T06:54:04;94692.59;;;8.02;68.91
20027;BME280;10174;42.688;23.344;2023-04-03T06:56:31;94727.00;;;8.42;68.47
20027;BME280;10174;42.688;23.344;2023-04-03T06:58:57;94731.03;;;8.44;67.99
20027;BME280;10174;42.688;23.344;2023-04-03T07:01:25;94724.44;;;8.83;66.63
20027;BME280;10174;42.688;23.344;2023-04-03T07:03:51;94717.22;;;8.94;65.42
20027;BME280;10174;42.688;23.344;2023-04-03T07:06:18;94701.13;;;9.04;64.85
20027;BME280;10174;42.688;23.344;2023-04-03T07:08:44;94686.94;;;8.93;65.18
20027;BME280;10174;42.688;23.344;2023-04-03T07:11:11;94718.56;;;9.06;65.94
20027;BME280;10174;42.688;23.344;2023-04-03T07:13:37;94711.88;;;9.09;65.67
20027;BME280;10174;42.688;23.344;2023-04-03T07:16:03;94711.06;;;8.98;65.61
20027;BME280;10174;42.688;23.344;2023-04-03T07:18:30;94587.81;;;8.42;64.96
20027;BME280;10174;42.688;23.344;2023-04-03T07:20:56;94688.53;;;9.09;65.58
20027;BME280;10174;42.688;23.344;2023-04-03T07:23:23;94676.50;;;9.12;64.68
20027;BME280;10174;42.688;23.344;2023-04-03T07:25:50;94704.03;;;9.64;64.13
20027;BME280;10174;42.688;23.344;2023-04-03T07:28:17;94661.09;;;9.69;62.95
20027;BME280;10174;42.688;23.344;2023-04-03T07:30:47;94682.91;;;10.23;61.67
20027;BME280;10174;42.688;23.344;2023-04-03T07:33:14;94685.03;;;10.26;61.21
20027;BME280;10174;42.688;23.344;2023-04-03T07:35:40;94675.00;;;9.87;61.24
20027;BME280;10174;42.688;23.344;2023-04-03T07:38:06;94709.88;;;9.81;62.29
20027;BME280;10174;42.688;23.344;2023-04-03T07:40:32;94708.78;;;9.88;62.40
20027;BME280;10174;42.688;23.344;2023-04-03T07:42:58;94685.09;;;10.10;61.38
20027;BME280;10174;42.688;23.344;2023-04-03T07:45:24;94677.41;;;9.88;61.79
20027;BME280;10174;42.688;23.344;2023-04-03T07:47:49;94691.53;;;10.14;61.81
20027;BME280;10174;42.688;23.344;2023-04-03T07:50:15;94682.44;;;10.00;61.94
20027;BME280;10174;42.688;23.344;2023-04-03T07:52:41;94681.97;;;9.88;61.68
20027;BME280;10174;42.688;23.344;2023-04-03T07:55:07;94687.94;;;9.74;62.37
20027;BME280;10174;42.688;23.344;2023-04-03T07:57:33;94673.41;;;9.86;62.44
20027;BME280;10174;42.688;23.344;2023-04-03T07:59:58;94689.50;;;9.75;62.83
20027;BME280;10174;42.688;23.344;2023-04-03T08:02:24;94578.13;;;9.23;61.99
20027;BME280;10174;42.688;23.344;2023-04-03T08:04:50;94669.56;;;10.07;62.17
20027;BME280;10174;42.688;23.344;2023-04-03T08:07:15;94676.78;;;10.12;62.38
20027;BME280;10174;42.688;23.344;2023-04-03T08:09:41;94600.50;;;9.63;62.36
20027;BME280;10174;42.688;23.344;2023-04-03T08:12:06;94592.25;;;9.49;63.11
20027;BME280;10174;42.688;23.344;2023-04-03T08:14:32;94646.75;;;10.05;63.25
20027;BME280;10174;42.688;23.344;2023-04-03T08:17:00;94633.59;;;10.08;62.91
20027;BME280;10174;42.688;23.344;2023-04-03T08:19:25;94640.34;;;10.50;61.39
20027;BME280;10174;42.688;23.344;2023-04-03T08:21:51;94654.94;;;10.39;61.61
20027;BME280;10174;42.688;23.344;2023-04-03T08:24:17;94639.88;;;10.43;61.38
20027;BME280;10174;42.688;23.344;2023-04-03T08:26:43;94633.88;;;10.57;61.09
20027;BME280;10174;42.688;23.344;2023-04-03T08:29:08;94640.13;;;11.16;60.15
20027;BME280;10174;42.688;23.344;2023-04-03T08:31:33;94643.38;;;11.13;59.58
20027;BME280;10174;42.688;23.344;2023-04-03T08:33:59;94676.38;;;11.53;58.13
20027;BME280;10174;42.688;23.344;2023-04-03T08:36:29;94643.63;;;11.70;57.77
20027;BME280;10174;42.688;23.344;2023-04-03T08:38:57;94653.38;;;11.90;57.59
20027;BME280;10174;42.688;23.344;2023-04-03T08:46:23;94531.44;;;11.70;54.89
20027;BME280;10174;42.688;23.344;2023-04-03T08:48:51;94602.84;;;12.06;56.21
20027;BME280;10174;42.688;23.344;2023-04-03T08:51:19;94625.91;;;12.55;55.41
20027;BME280;10174;42.688;23.344;2023-04-03T08:56:18;94614.94;;;12.65;55.41
20027;BME280;10174;42.688;23.344;2023-04-03T08:58:57;94623.59;;;13.14;53.19
20027;BME280;10174;42.688;23.344;2023-04-03T09:01:32;94629.22;;;13.18;53.90
20027;BME280;10174;42.688;23.344;2023-04-03T09:04:01;94569.63;;;12.54;54.39
20027;BME280;10174;42.688;23.344;2023-04-03T09:06:31;94615.09;;;13.40;52.65
20027;BME280;10174;42.688;23.344;2023-04-03T09:14:53;94607.00;;;12.93;54.00
20027;BME280;10174;42.688;23.344;2023-04-03T09:22:43;94548.00;;;13.06;52.28
20027;BME280;10174;42.688;23.344;2023-04-03T09:25:18;94589.84;;;13.50;52.35
20027;BME280;10174;42.688;23.344;2023-04-03T09:27:45;94487.34;;;12.42;52.98
20027;BME280;10174;42.688;23.344;2023-04-03T09:30:22;94569.19;;;12.79;53.72
20027;BME280;10174;42.688;23.344;2023-04-03T09:32:51;94525.84;;;12.43;53.69
20027;BME280;10174;42.688;23.344;2023-04-03T09:38:18;94578.31;;;12.97;53.48
20027;BME280;10174;42.688;23.344;2023-04-03T09:40:46;94578.66;;;13.10;53.50
20027;BME280;10174;42.688;23.344;2023-04-03T09:43:31;94589.50;;;13.38;53.15
20027;BME280;10174;42.688;23.344;2023-04-03T09:46:18;94584.41;;;13.36;53.65
20027;BME280;10174;42.688;23.344;2023-04-03T09:48:55;94564.16;;;13.94;51.54
20027;BME280;10174;42.688;23.344;2023-04-03T09:51:25;94461.44;;;13.49;51.08
20027;BME280;10174;42.688;23.344;2023-04-03T09:53:52;94520.94;;;13.94;51.25
20027;BME280;10174;42.688;23.344;2023-04-03T10:01:26;94561.88;;;13.13;53.47
20027;BME280;10174;42.688;23.344;2023-04-03T10:04:22;94557.03;;;12.82;54.25
20027;BME280;10174;42.688;23.344;2023-04-03T10:06:50;94565.84;;;12.88;54.77
20027;BME280;10174;42.688;23.344;2023-04-03T10:09:31;94558.25;;;12.57;54.99
20027;BME280;10174;42.688;23.344;2023-04-03T10:14:24;94557.28;;;12.67;55.61
20027;BME280;10174;42.688;23.344;2023-04-03T10:25:19;94549.78;;;12.96;54.49
20027;BME280;10174;42.688;23.344;2023-04-03T10:28:05;94549.19;;;12.99;55.13
20027;BME280;10174;42.688;23.344;2023-04-03T10:41:53;94498.78;;;13.14;54.36
20027;BME280;10174;42.688;23.344;2023-04-03T10:44:03;94523.91;;;13.56;53.93
20027;BME280;10174;42.688;23.344;2023-04-03T10:55:24;94517.38;;;13.57;53.42
20027;BME280;10174;42.688;23.344;2023-04-03T10:57:56;94513.47;;;13.63;53.34
20027;BME280;10174;42.688;23.344;2023-04-03T11:00:38;94517.50;;;13.52;52.90
20027;BME280;10174;42.688;23.344;2023-04-03T11:03:13;94513.00;;;13.33;53.96
20027;BME280;10174;42.688;23.344;2023-04-03T11:05:43;94510.56;;;13.04;54.94
20027;BME280;10174;42.688;23.344;2023-04-03T11:10:47;94500.31;;;12.87;58.48
20027;BME280;10174;42.688;23.344;2023-04-03T11:16:04;94530.69;;;12.93;57.79
20027;BME280;10174;42.688;23.344;2023-04-03T11:18:45;94481.75;;;12.39;61.61
20027;BME280;10174;42.688;23.344;2023-04-03T11:21:41;94535.69;;;12.53;63.95
20027;BME280;10174;42.688;23.344;2023-04-03T11:24:25;94456.84;;;12.14;63.83
20027;BME280;10174;42.688;23.344;2023-04-03T11:26:53;94530.28;;;12.53;65.65
20027;BME280;10174;42.688;23.344;2023-04-03T11:29:22;94506.16;;;12.28;66.42
20027;BME280;10174;42.688;23.344;2023-04-03T11:32:26;94532.63;;;12.40;67.59
20027;BME280;10174;42.688;23.344;2023-04-03T11:34:50;94530.28;;;12.53;67.99
20027;BME280;10174;42.688;23.344;2023-04-03T11:37:30;94494.19;;;12.02;68.87
20027;BME280;10174;42.688;23.344;2023-04-03T11:40:00;94452.31;;;11.90;69.33
20027;BME280;10174;42.688;23.344;2023-04-03T11:42:36;94528.63;;;12.38;70.54
20027;BME280;10174;42.688;23.344;2023-04-03T11:47:55;94491.53;;;11.97;71.45
20027;BME280;10174;42.688;23.344;2023-04-03T11:50:43;94534.41;;;12.31;72.36
20027;BME280;10174;42.688;23.344;2023-04-03T11:58:24;94480.81;;;11.72;73.83
20027;BME280;10174;42.688;23.344;2023-04-03T12:03:55;94498.03;;;11.52;75.28
20027;BME280;10174;42.688;23.344;2023-04-03T12:08:55;94545.66;;;11.28;79.93
20027;BME280;10174;42.688;23.344;2023-04-03T12:11:32;94537.50;;;11.33;80.25
20027;BME280;10174;42.688;23.344;2023-04-03T12:16:29;94518.13;;;10.87;81.10
20027;BME280;10174;42.688;23.344;2023-04-03T12:18:59;94473.81;;;10.56;80.79
20027;BME280;10174;42.688;23.344;2023-04-03T12:24:24;94483.84;;;10.74;83.53
20027;BME280;10174;42.688;23.344;2023-04-03T12:32:35;94532.56;;;10.92;84.39
20027;BME280;10174;42.688;23.344;2023-04-03T12:40:50;94504.91;;;10.62;87.48
20027;BME280;10174;42.688;23.344;2023-04-03T12:48:59;94476.25;;;10.18;88.30
20027;BME280;10174;42.688;23.344;2023-04-03T12:51:37;94402.56;;;9.70;89.70
20027;BME280;10174;42.688;23.344;2023-04-03T12:57:11;94451.50;;;9.91;89.62
20027;BME280;10174;42.688;23.344;2023-04-03T12:59:37;94483.59;;;10.02;90.44
20027;BME280;10174;42.688;23.344;2023-04-03T13:02:15;94465.47;;;9.88;91.02
20027;BME280;10174;42.688;23.344;2023-04-03T13:04:43;94476.94;;;9.94;91.43
20027;BME280;10174;42.688;23.344;2023-04-03T13:10:14;94501.09;;;9.99;91.83
20027;BME280;10174;42.688;23.344;2023-04-03T13:12:52;94481.06;;;9.81;91.14
20027;BME280;10174;42.688;23.344;2023-04-03T13:16:01;94470.22;;;9.62;92.43
20027;BME280;10174;42.688;23.344;2023-04-03T13:18:26;94367.31;;;9.03;92.23
20027;BME280;10174;42.688;23.344;2023-04-03T13:20:53;94492.09;;;9.79;93.00
20027;BME280;10174;42.688;23.344;2023-04-03T13:23:22;94486.84;;;9.59;94.29
20027;BME280;10174;42.688;23.344;2023-04-03T13:25:49;94499.16;;;9.60;95.78
20027;BME280;10174;42.688;23.344;2023-04-03T13:28:25;94463.66;;;9.29;96.06
20027;BME280;10174;42.688;23.344;2023-04-03T13:31:16;94480.97;;;9.52;95.15
20027;BME280;10174;42.688;23.344;2023-04-03T13:34:02;94473.25;;;9.40;95.90
20027;BME280;10174;42.688;23.344;2023-04-03T13:36:45;94463.59;;;9.44;95.21
20027;BME280;10174;42.688;23.344;2023-04-03T13:41:44;94475.97;;;9.35;96.13
20027;BME280;10174;42.688;23.344;2023-04-03T13:47:15;94473.31;;;9.24;96.36
20027;BME280;10174;42.688;23.344;2023-04-03T13:49:44;94463.19;;;9.16;96.93
20027;BME280;10174;42.688;23.344;2023-04-03T13:52:30;94463.19;;;9.16;98.42
20027;BME280;10174;42.688;23.344;2023-04-03T13:55:51;94473.13;;;9.11;98.12
20027;BME280;10174;42.688;23.344;2023-04-03T13:58:01;94469.88;;;9.08;98.60
20027;BME280;10174;42.688;23.344;2023-04-03T14:02:56;94388.63;;;8.58;99.08
20027;BME280;10174;42.688;23.344;2023-04-03T14:05:22;94463.50;;;9.04;99.33
20027;BME280;10174;42.688;23.344;2023-04-03T14:07:50;94429.81;;;8.78;98.88
20027;BME280;10174;42.688;23.344;2023-04-03T14:10:16;94469.91;;;9.03;99.41
20027;BME280;10174;42.688;23.344;2023-04-03T14:12:41;94434.88;;;8.89;99.64
20027;BME280;10174;42.688;23.344;2023-04-03T14:15:20;94449.00;;;9.05;99.70
20027;BME280;10174;42.688;23.344;2023-04-03T14:17:48;94436.75;;;8.89;99.57
20027;BME280;10174;42.688;23.344;2023-04-03T14:20:19;94447.72;;;8.93;99.95
20027;BME280;10174;42.688;23.344;2023-04-03T14:22:45;94452.00;;;8.99;100.00
20027;BME280;10174;42.688;23.344;2023-04-03T14:25:11;94437.53;;;8.95;100.00
20027;BME280;10174;42.688;23.344;2023-04-03T14:27:40;94452.22;;;9.02;99.61
20027;BME280;10174;42.688;23.344;2023-04-03T14:30:11;94444.97;;;9.08;99.36
20027;BME280;10174;42.688;23.344;2023-04-03T14:32:37;94448.47;;;9.08;100.00
20027;BME280;10174;42.688;23.344;2023-04-03T14:35:03;94311.66;;;8.19;100.00
20027;BME280;10174;42.688;23.344;2023-04-03T14:37:30;94447.94;;;9.06;100.00
20027;BME280;10174;42.688;23.344;2023-04-03T14:39:57;94421.22;;;8.91;99.49
20027;BME280;10174;42.688;23.344;2023-04-03T14:42:29;94446.84;;;9.13;99.09
20027;BME280;10174;42.688;23.344;2023-04-03T14:44:55;94445.75;;;9.19;98.90
20027;BME280;10174;42.688;23.344;2023-04-03T14:47:23;94322.84;;;8.36;99.30
20027;BME280;10174;42.688;23.344;2023-04-03T14:49:50;94412.66;;;8.89;98.33
20027;BME280;10174;42.688;23.344;2023-04-03T14:52:34;94411.00;;;8.98;99.02
20027;BME280;10174;42.688;23.344;2023-04-03T14:55:03;94406.97;;;9.01;97.89
20027;BME280;10174;42.688;23.344;2023-04-03T14:57:29;94277.41;;;8.21;98.03
20027;BME280;10174;42.688;23.344;2023-04-03T14:59:56;94434.78;;;9.15;99.30
20027;BME280;10174;42.688;23.344;2023-04-03T15:02:35;94359.66;;;8.81;98.74
20027;BME280;10174;42.688;23.344;2023-04-03T15:05:04;94415.53;;;9.03;98.36
20027;BME280;10174;42.688;23.344;2023-04-03T15:07:37;94332.47;;;8.48;98.01
20027;BME280;10174;42.688;23.344;2023-04-03T15:12:49;94427.91;;;8.88;97.97